Rorichmoor — V2BV7 — position and weather

sailwx.info

Track history (hours):
 
Tides and Currents Weather Stations Pressure Air Temp Water Temp Dewpoint Dewpoint Depression Visibility Wind Speed Wind Dir Waves Ship Positions

Rorichmoor

Last reported at 2014-Aug-30 20:25 UTC. Time now 2014-Aug-31 04:35 UTC.
Position N 42°10' E 005°03'.

Length 80 m; draft 3.7 m.

Type: Cargo ship. MMSI: 304938000.

Date/timePositionNaut miles runAvg speedWind from/ knotsBaromVisibWave heightAir tempDewpointWater temp
2014-Aug-30 20:25N 42°10' E 005°03'910.2
2014-Aug-30 19:32N 42°19' E 005°01'9 9.4
2014-Aug-30 18:33N 42°28' E 005°02'10 9.7
2014-Aug-30 17:33N 42°38' E 005°01'39 9.7
2014-Aug-30 13:34N 43°17' E 004°56'9 8.9
2014-Aug-30 12:33N 43°25' E 004°53'0 0.2
2014-Aug-30 11:33N 43°26' E 004°53'0 0.0
2014-Aug-30 10:33N 43°26' E 004°53'0 0.0
2014-Aug-30 09:33N 43°26' E 004°53'0 0.0
2014-Aug-30 08:30N 43°26' E 004°53'0 0.0
2014-Aug-30 07:27N 43°26' E 004°53'0 0.0
2014-Aug-30 06:30N 43°26' E 004°53'0 0.0
2014-Aug-30 05:33N 43°26' E 004°53'0 0.0
2014-Aug-30 04:33N 43°26' E 004°53'0 0.0
2014-Aug-30 03:18N 43°26' E 004°53'0 0.0
2014-Aug-30 01:15N 43°26' E 004°53'0 0.0
2014-Aug-29 23:27N 43°26' E 004°53'0 0.0
2014-Aug-29 22:06N 43°26' E 004°53'0 0.0
2014-Aug-29 21:30N 43°26' E 004°53'0 0.0
2014-Aug-29 20:24N 43°26' E 004°53'0 0.0
2014-Aug-29 19:30N 43°26' E 004°53'0 0.0
2014-Aug-29 18:33N 43°26' E 004°53'0 0.0
2014-Aug-29 17:33N 43°26' E 004°53'0 0.0
2014-Aug-29 16:33N 43°26' E 004°53'0 0.0
2014-Aug-29 15:21N 43°26' E 004°53'0 0.0
2014-Aug-29 14:15N 43°26' E 004°53'0 0.0
2014-Aug-29 13:30N 43°26' E 004°53'0 0.0
2014-Aug-29 12:30N 43°26' E 004°53'0 0.0
2014-Aug-29 11:33N 43°26' E 004°53'0 0.0
2014-Aug-29 10:30N 43°26' E 004°53'0 0.0
2014-Aug-29 09:30N 43°26' E 004°53'0 0.0
2014-Aug-29 08:30N 43°26' E 004°53'0 0.0
2014-Aug-29 07:33N 43°26' E 004°53'0 0.0
2014-Aug-29 06:27N 43°26' E 004°53'0 0.0
2014-Aug-29 05:30N 43°26' E 004°53'0 0.0
2014-Aug-29 04:33N 43°26' E 004°53'0 0.0
2014-Aug-29 03:33N 43°26' E 004°53'0 0.0
2014-Aug-29 02:33N 43°26' E 004°53'0 0.0
2014-Aug-29 01:30N 43°26' E 004°53'0 0.0
2014-Aug-29 00:33N 43°26' E 004°53'2 1.6
2014-Aug-28 23:31N 43°25' E 004°55'0 0.1
2014-Aug-28 22:31N 43°25' E 004°55'0 0.1
2014-Aug-28 21:31N 43°25' E 004°55'4 4.1
2014-Aug-28 20:33N 43°23' E 004°50'1 0.1
2014-Aug-28 00:17N 43°23' E 004°49'3 4.2
2014-Aug-27 23:34N 43°24' E 004°53'8 7.9
2014-Aug-27 22:34N 43°18' E 004°60'10 8.2
2014-Aug-27 21:22N 43°08' E 004°59'8 9.1
2014-Aug-27 20:27N 43°02' E 004°52'3010.3
2014-Aug-27 17:33N 42°38' E 004°27'14 7.2
2014-Aug-27 15:32N 42°26' E 004°15'10 9.0
2014-Aug-27 14:23N 42°18' E 004°07'8 8.7
2014-Aug-27 13:27N 42°12' E 003°60'21 9.8
2014-Aug-27 11:16N 41°55' E 003°42'6 6.9
2014-Aug-27 10:28N 41°51' E 003°38'8 8.7
2014-Aug-27 09:31N 41°44' E 003°31'19 8.9
2014-Aug-27 07:26N 41°30' E 003°16'8 9.0
2014-Aug-27 06:32N 41°23' E 003°09'11 9.2
2014-Aug-27 05:22N 41°14' E 003°01'2310.1
2014-Aug-27 03:04N 40°56' E 002°42'2 3.2
2014-Aug-27 02:21N 40°54' E 002°40'8 9.6
2014-Aug-27 01:33N 40°48' E 002°34'10 9.3
2014-Aug-27 00:31N 40°40' E 002°27'9 9.0
2014-Aug-26 23:33N 40°34' E 002°19'9 9.1
2014-Aug-26 22:33N 40°26' E 002°12'9 9.5
2014-Aug-26 21:33N 40°19' E 002°04'10 9.6
2014-Aug-26 20:33N 40°11' E 001°57'10 9.6
2014-Aug-26 19:33N 40°04' E 001°49'10 9.6
2014-Aug-26 18:33N 39°56' E 001°42'53 9.7
2014-Aug-26 13:08N 39°14' E 000°60'610.1
2014-Aug-26 12:33N 39°10' E 000°55'41 9.7
2014-Aug-26 08:23N 38°37' E 000°24'8 8.9
2014-Aug-26 07:31N 38°31' E 000°18'10 9.0
2014-Aug-26 06:23N 38°22' E 000°11'8 9.2
2014-Aug-26 05:33N 38°16' E 000°06'9 9.4
2014-Aug-26 04:33N 38°08' W 000°01'9 9.2
2014-Aug-26 03:33N 38°00' W 000°07'9 9.3
2014-Aug-26 02:33N 37°53' W 000°14'9 9.2
2014-Aug-26 01:33N 37°45' W 000°20'9 9.3
2014-Aug-26 00:33N 37°37' W 000°27'12 9.3
2014-Aug-25 23:13N 37°28' W 000°37'7 9.4
2014-Aug-25 22:31N 37°24' W 000°44'9 9.1
2014-Aug-25 21:29N 37°17' W 000°52'  
Track history (hours):
 
Tides and Currents Weather Stations Pressure Air Temp Water Temp Dewpoint Dewpoint Depression Visibility Wind Speed Wind Dir Waves Ship Positions

Rorichmoor

Last reported at 2014-Aug-30 20:25 UTC. Time now 2014-Aug-31 04:35 UTC.
Position N 42°10' E 005°03'.

Length 80 m; draft 3.7 m.

Type: Cargo ship. MMSI: 304938000.

Date/timePositionNaut miles runAvg speedWind from/ knotsBaromVisibWave heightAir tempDewpointWater temp
2014-Aug-30 20:25N 42°10' E 005°03'910.2
2014-Aug-30 19:32N 42°19' E 005°01'9 9.4
2014-Aug-30 18:33N 42°28' E 005°02'10 9.7
2014-Aug-30 17:33N 42°38' E 005°01'39 9.7
2014-Aug-30 13:34N 43°17' E 004°56'9 8.9
2014-Aug-30 12:33N 43°25' E 004°53'0 0.2
2014-Aug-30 11:33N 43°26' E 004°53'0 0.0
2014-Aug-30 10:33N 43°26' E 004°53'0 0.0
2014-Aug-30 09:33N 43°26' E 004°53'0 0.0
2014-Aug-30 08:30N 43°26' E 004°53'0 0.0
2014-Aug-30 07:27N 43°26' E 004°53'0 0.0
2014-Aug-30 06:30N 43°26' E 004°53'0 0.0
2014-Aug-30 05:33N 43°26' E 004°53'0 0.0
2014-Aug-30 04:33N 43°26' E 004°53'0 0.0
2014-Aug-30 03:18N 43°26' E 004°53'0 0.0
2014-Aug-30 01:15N 43°26' E 004°53'0 0.0
2014-Aug-29 23:27N 43°26' E 004°53'0 0.0
2014-Aug-29 22:06N 43°26' E 004°53'0 0.0
2014-Aug-29 21:30N 43°26' E 004°53'0 0.0
2014-Aug-29 20:24N 43°26' E 004°53'0 0.0
2014-Aug-29 19:30N 43°26' E 004°53'0 0.0
2014-Aug-29 18:33N 43°26' E 004°53'0 0.0
2014-Aug-29 17:33N 43°26' E 004°53'0 0.0
2014-Aug-29 16:33N 43°26' E 004°53'0 0.0
2014-Aug-29 15:21N 43°26' E 004°53'0 0.0
2014-Aug-29 14:15N 43°26' E 004°53'0 0.0
2014-Aug-29 13:30N 43°26' E 004°53'0 0.0
2014-Aug-29 12:30N 43°26' E 004°53'0 0.0
2014-Aug-29 11:33N 43°26' E 004°53'0 0.0
2014-Aug-29 10:30N 43°26' E 004°53'0 0.0
2014-Aug-29 09:30N 43°26' E 004°53'0 0.0
2014-Aug-29 08:30N 43°26' E 004°53'0 0.0
2014-Aug-29 07:33N 43°26' E 004°53'0 0.0
2014-Aug-29 06:27N 43°26' E 004°53'0 0.0
2014-Aug-29 05:30N 43°26' E 004°53'0 0.0
2014-Aug-29 04:33N 43°26' E 004°53'0 0.0
2014-Aug-29 03:33N 43°26' E 004°53'0 0.0
2014-Aug-29 02:33N 43°26' E 004°53'0 0.0
2014-Aug-29 01:30N 43°26' E 004°53'0 0.0
2014-Aug-29 00:33N 43°26' E 004°53'2 1.6
2014-Aug-28 23:31N 43°25' E 004°55'0 0.1
2014-Aug-28 22:31N 43°25' E 004°55'0 0.1
2014-Aug-28 21:31N 43°25' E 004°55'4 4.1
2014-Aug-28 20:33N 43°23' E 004°50'1 0.1
2014-Aug-28 00:17N 43°23' E 004°49'3 4.2
2014-Aug-27 23:34N 43°24' E 004°53'8 7.9
2014-Aug-27 22:34N 43°18' E 004°60'10 8.2
2014-Aug-27 21:22N 43°08' E 004°59'8 9.1
2014-Aug-27 20:27N 43°02' E 004°52'3010.3
2014-Aug-27 17:33N 42°38' E 004°27'14 7.2
2014-Aug-27 15:32N 42°26' E 004°15'10 9.0
2014-Aug-27 14:23N 42°18' E 004°07'8 8.7
2014-Aug-27 13:27N 42°12' E 003°60'21 9.8
2014-Aug-27 11:16N 41°55' E 003°42'6 6.9
2014-Aug-27 10:28N 41°51' E 003°38'8 8.7
2014-Aug-27 09:31N 41°44' E 003°31'19 8.9
2014-Aug-27 07:26N 41°30' E 003°16'8 9.0
2014-Aug-27 06:32N 41°23' E 003°09'11 9.2
2014-Aug-27 05:22N 41°14' E 003°01'2310.1
2014-Aug-27 03:04N 40°56' E 002°42'2 3.2
2014-Aug-27 02:21N 40°54' E 002°40'8 9.6
2014-Aug-27 01:33N 40°48' E 002°34'10 9.3
2014-Aug-27 00:31N 40°40' E 002°27'9 9.0
2014-Aug-26 23:33N 40°34' E 002°19'9 9.1
2014-Aug-26 22:33N 40°26' E 002°12'9 9.5
2014-Aug-26 21:33N 40°19' E 002°04'10 9.6
2014-Aug-26 20:33N 40°11' E 001°57'10 9.6
2014-Aug-26 19:33N 40°04' E 001°49'10 9.6
2014-Aug-26 18:33N 39°56' E 001°42'53 9.7
2014-Aug-26 13:08N 39°14' E 000°60'610.1
2014-Aug-26 12:33N 39°10' E 000°55'41 9.7
2014-Aug-26 08:23N 38°37' E 000°24'8 8.9
2014-Aug-26 07:31N 38°31' E 000°18'10 9.0
2014-Aug-26 06:23N 38°22' E 000°11'8 9.2
2014-Aug-26 05:33N 38°16' E 000°06'9 9.4
2014-Aug-26 04:33N 38°08' W 000°01'9 9.2
2014-Aug-26 03:33N 38°00' W 000°07'9 9.3
2014-Aug-26 02:33N 37°53' W 000°14'9 9.2
2014-Aug-26 01:33N 37°45' W 000°20'9 9.3
2014-Aug-26 00:33N 37°37' W 000°27'12 9.3
2014-Aug-25 23:13N 37°28' W 000°37'7 9.4
2014-Aug-25 22:31N 37°24' W 000°44'9 9.1
2014-Aug-25 21:29N 37°17' W 000°52'  

Dump ship's entire track history